Terminal Aerodrome Forecast
Issued by NWS Topeka, KS

Home | Current Version | Previous Version | Text Only | Print | Product List | Glossary Off
Versions: 1 2 3 4 5 6 7 8 9 10 11 12 13 14 15 16 17 18 19 20 21

000
FTUS43 KTOP 220541
TAFTOP
TAF
KTOP 220541Z 2206/2306 19004KT P6SM SKC
     FM221100 19005KT P6SM FEW250 WS020/23040KT
     FM221500 21010KT P6SM FEW250
     FM230000 30004KT P6SM FEW250=

USA.gov is the U.S. government's official web portal to all federal, state and local government web resources and services.